sensor_id;sensor_type;location;lat;lon;timestamp;P1;durP1;ratioP1;P2;durP2;ratioP2
16828;SDS011;8531;48.078;11.968;2022-10-16T00:00:17;4.15;;;2.00;;
16828;SDS011;8531;48.078;11.968;2022-10-16T00:02:42;3.17;;;1.55;;
16828;SDS011;8531;48.078;11.968;2022-10-16T00:05:08;4.72;;;2.47;;
16828;SDS011;8531;48.078;11.968;2022-10-16T00:07:34;3.55;;;2.10;;
16828;SDS011;8531;48.078;11.968;2022-10-16T00:09:59;2.45;;;2.13;;
16828;SDS011;8531;48.078;11.968;2022-10-16T00:12:25;5.57;;;2.20;;
16828;SDS011;8531;48.078;11.968;2022-10-16T00:14:51;4.07;;;2.30;;
16828;SDS011;8531;48.078;11.968;2022-10-16T00:17:16;3.33;;;1.80;;
16828;SDS011;8531;48.078;11.968;2022-10-16T00:19:42;2.85;;;2.00;;
16828;SDS011;8531;48.078;11.968;2022-10-16T00:22:08;4.57;;;1.85;;
16828;SDS011;8531;48.078;11.968;2022-10-16T00:24:33;3.40;;;2.30;;
16828;SDS011;8531;48.078;11.968;2022-10-16T00:26:59;4.82;;;2.30;;
16828;SDS011;8531;48.078;11.968;2022-10-16T00:29:25;2.10;;;1.90;;
16828;SDS011;8531;48.078;11.968;2022-10-16T00:31:50;2.72;;;2.10;;
16828;SDS011;8531;48.078;11.968;2022-10-16T00:34:16;4.32;;;2.30;;
16828;SDS011;8531;48.078;11.968;2022-10-16T00:36:42;3.17;;;2.60;;
16828;SDS011;8531;48.078;11.968;2022-10-16T00:39:07;3.75;;;2.70;;
16828;SDS011;8531;48.078;11.968;2022-10-16T00:41:33;2.55;;;2.28;;
16828;SDS011;8531;48.078;11.968;2022-10-16T00:44:00;4.07;;;2.42;;
16828;SDS011;8531;48.078;11.968;2022-10-16T00:46:38;5.13;;;2.38;;
16828;SDS011;8531;48.078;11.968;2022-10-16T00:49:08;2.33;;;2.00;;
16828;SDS011;8531;48.078;11.968;2022-10-16T00:51:44;2.50;;;2.30;;
16828;SDS011;8531;48.078;11.968;2022-10-16T00:54:23;2.92;;;2.00;;
16828;SDS011;8531;48.078;11.968;2022-10-16T00:56:51;3.17;;;2.17;;
16828;SDS011;8531;48.078;11.968;2022-10-16T00:59:19;3.70;;;2.53;;
16828;SDS011;8531;48.078;11.968;2022-10-16T01:01:49;3.38;;;2.75;;
16828;SDS011;8531;48.078;11.968;2022-10-16T01:04:15;3.22;;;2.97;;
16828;SDS011;8531;48.078;11.968;2022-10-16T01:09:23;2.65;;;2.33;;
16828;SDS011;8531;48.078;11.968;2022-10-16T01:14:40;3.00;;;2.70;;
16828;SDS011;8531;48.078;11.968;2022-10-16T01:17:18;3.10;;;2.42;;
16828;SDS011;8531;48.078;11.968;2022-10-16T01:28:55;6.40;;;2.25;;
16828;SDS011;8531;48.078;11.968;2022-10-16T01:31:24;6.00;;;2.60;;
16828;SDS011;8531;48.078;11.968;2022-10-16T01:34:05;3.58;;;2.30;;
16828;SDS011;8531;48.078;11.968;2022-10-16T01:36:36;3.15;;;2.65;;
16828;SDS011;8531;48.078;11.968;2022-10-16T01:39:05;2.83;;;2.63;;
16828;SDS011;8531;48.078;11.968;2022-10-16T01:41:42;5.13;;;2.88;;
16828;SDS011;8531;48.078;11.968;2022-10-16T01:44:22;3.42;;;2.25;;
16828;SDS011;8531;48.078;11.968;2022-10-16T01:46:51;3.85;;;2.40;;
16828;SDS011;8531;48.078;11.968;2022-10-16T01:49:19;3.10;;;2.70;;
16828;SDS011;8531;48.078;11.968;2022-10-16T01:51:48;5.65;;;2.65;;
16828;SDS011;8531;48.078;11.968;2022-10-16T01:54:17;3.03;;;2.58;;
16828;SDS011;8531;48.078;11.968;2022-10-16T01:56:45;4.10;;;2.70;;
16828;SDS011;8531;48.078;11.968;2022-10-16T01:59:13;3.45;;;2.67;;
16828;SDS011;8531;48.078;11.968;2022-10-16T02:01:44;2.38;;;2.17;;
16828;SDS011;8531;48.078;11.968;2022-10-16T02:07:23;3.50;;;2.33;;
16828;SDS011;8531;48.078;11.968;2022-10-16T02:09:49;2.78;;;2.15;;
16828;SDS011;8531;48.078;11.968;2022-10-16T02:12:23;9.77;;;3.00;;
16828;SDS011;8531;48.078;11.968;2022-10-16T02:14:56;6.43;;;3.08;;
16828;SDS011;8531;48.078;11.968;2022-10-16T02:17:22;2.55;;;2.30;;
16828;SDS011;8531;48.078;11.968;2022-10-16T02:19:49;4.63;;;2.28;;
16828;SDS011;8531;48.078;11.968;2022-10-16T02:22:20;4.30;;;2.70;;
16828;SDS011;8531;48.078;11.968;2022-10-16T02:30:45;2.83;;;1.83;;
16828;SDS011;8531;48.078;11.968;2022-10-16T02:33:14;3.10;;;2.15;;
16828;SDS011;8531;48.078;11.968;2022-10-16T02:35:42;2.80;;;2.25;;
16828;SDS011;8531;48.078;11.968;2022-10-16T02:38:10;2.70;;;2.20;;
16828;SDS011;8531;48.078;11.968;2022-10-16T02:40:36;4.93;;;2.10;;
16828;SDS011;8531;48.078;11.968;2022-10-16T02:43:03;3.25;;;1.88;;
16828;SDS011;8531;48.078;11.968;2022-10-16T02:45:29;3.85;;;2.30;;
16828;SDS011;8531;48.078;11.968;2022-10-16T02:47:55;3.35;;;2.47;;
16828;SDS011;8531;48.078;11.968;2022-10-16T02:50:20;2.38;;;2.05;;
16828;SDS011;8531;48.078;11.968;2022-10-16T02:52:47;2.63;;;2.30;;
16828;SDS011;8531;48.078;11.968;2022-10-16T02:55:13;3.28;;;2.15;;
16828;SDS011;8531;48.078;11.968;2022-10-16T02:57:39;2.00;;;1.80;;
16828;SDS011;8531;48.078;11.968;2022-10-16T03:00:06;2.83;;;1.92;;
16828;SDS011;8531;48.078;11.968;2022-10-16T03:02:37;2.85;;;2.40;;
16828;SDS011;8531;48.078;11.968;2022-10-16T03:05:03;2.40;;;1.85;;
16828;SDS011;8531;48.078;11.968;2022-10-16T03:07:29;3.10;;;2.35;;
16828;SDS011;8531;48.078;11.968;2022-10-16T03:09:54;5.97;;;2.38;;
16828;SDS011;8531;48.078;11.968;2022-10-16T03:12:21;2.60;;;2.38;;
16828;SDS011;8531;48.078;11.968;2022-10-16T03:14:46;4.82;;;2.85;;
16828;SDS011;8531;48.078;11.968;2022-10-16T03:17:12;2.88;;;2.00;;
16828;SDS011;8531;48.078;11.968;2022-10-16T03:19:38;5.55;;;2.30;;
16828;SDS011;8531;48.078;11.968;2022-10-16T03:22:04;3.15;;;2.20;;
16828;SDS011;8531;48.078;11.968;2022-10-16T03:24:30;6.32;;;2.28;;
16828;SDS011;8531;48.078;11.968;2022-10-16T03:26:56;2.70;;;2.22;;
16828;SDS011;8531;48.078;11.968;2022-10-16T03:29:22;3.25;;;2.15;;
16828;SDS011;8531;48.078;11.968;2022-10-16T03:31:48;2.22;;;2.00;;
16828;SDS011;8531;48.078;11.968;2022-10-16T03:34:14;3.80;;;2.10;;
16828;SDS011;8531;48.078;11.968;2022-10-16T03:36:40;2.40;;;2.10;;
16828;SDS011;8531;48.078;11.968;2022-10-16T03:39:06;2.28;;;2.08;;
16828;SDS011;8531;48.078;11.968;2022-10-16T03:41:31;3.70;;;2.28;;
16828;SDS011;8531;48.078;11.968;2022-10-16T03:43:57;6.32;;;2.17;;
16828;SDS011;8531;48.078;11.968;2022-10-16T03:46:23;2.60;;;2.40;;
16828;SDS011;8531;48.078;11.968;2022-10-16T03:48:48;4.25;;;2.22;;
16828;SDS011;8531;48.078;11.968;2022-10-16T03:51:14;4.68;;;2.35;;
16828;SDS011;8531;48.078;11.968;2022-10-16T03:53:40;3.38;;;2.70;;
16828;SDS011;8531;48.078;11.968;2022-10-16T03:56:06;4.97;;;2.10;;
16828;SDS011;8531;48.078;11.968;2022-10-16T03:58:31;2.95;;;2.25;;
16828;SDS011;8531;48.078;11.968;2022-10-16T04:00:57;3.30;;;2.20;;
16828;SDS011;8531;48.078;11.968;2022-10-16T04:03:23;4.50;;;2.05;;
16828;SDS011;8531;48.078;11.968;2022-10-16T04:05:49;3.47;;;1.63;;
16828;SDS011;8531;48.078;11.968;2022-10-16T04:08:15;2.05;;;1.70;;
16828;SDS011;8531;48.078;11.968;2022-10-16T04:10:42;3.00;;;1.98;;
16828;SDS011;8531;48.078;11.968;2022-10-16T04:13:08;6.18;;;1.85;;
16828;SDS011;8531;48.078;11.968;2022-10-16T04:15:34;3.72;;;1.88;;
16828;SDS011;8531;48.078;11.968;2022-10-16T04:17:59;3.22;;;2.15;;
16828;SDS011;8531;48.078;11.968;2022-10-16T04:20:25;3.88;;;2.40;;
16828;SDS011;8531;48.078;11.968;2022-10-16T04:22:51;3.60;;;2.50;;
16828;SDS011;8531;48.078;11.968;2022-10-16T04:25:17;5.43;;;1.90;;
16828;SDS011;8531;48.078;11.968;2022-10-16T04:27:42;1.80;;;1.45;;
16828;SDS011;8531;48.078;11.968;2022-10-16T04:30:08;2.25;;;1.48;;
16828;SDS011;8531;48.078;11.968;2022-10-16T04:32:34;2.45;;;1.67;;
16828;SDS011;8531;48.078;11.968;2022-10-16T04:35:00;1.90;;;1.60;;
16828;SDS011;8531;48.078;11.968;2022-10-16T04:37:26;1.92;;;1.45;;
16828;SDS011;8531;48.078;11.968;2022-10-16T04:39:52;3.83;;;2.10;;
16828;SDS011;8531;48.078;11.968;2022-10-16T04:42:19;3.85;;;1.77;;
16828;SDS011;8531;48.078;11.968;2022-10-16T04:44:45;2.33;;;1.85;;
16828;SDS011;8531;48.078;11.968;2022-10-16T04:47:11;2.08;;;1.73;;
16828;SDS011;8531;48.078;11.968;2022-10-16T04:49:37;3.53;;;1.83;;
16828;SDS011;8531;48.078;11.968;2022-10-16T04:52:03;5.35;;;3.08;;
16828;SDS011;8531;48.078;11.968;2022-10-16T04:54:29;7.32;;;5.75;;
16828;SDS011;8531;48.078;11.968;2022-10-16T04:56:54;8.10;;;5.13;;
16828;SDS011;8531;48.078;11.968;2022-10-16T04:59:20;5.57;;;3.20;;
16828;SDS011;8531;48.078;11.968;2022-10-16T05:01:47;3.58;;;1.85;;
16828;SDS011;8531;48.078;11.968;2022-10-16T05:04:12;2.10;;;1.90;;
16828;SDS011;8531;48.078;11.968;2022-10-16T05:06:40;5.82;;;2.35;;
16828;SDS011;8531;48.078;11.968;2022-10-16T05:09:06;3.88;;;2.10;;
16828;SDS011;8531;48.078;11.968;2022-10-16T05:11:32;2.40;;;2.00;;
16828;SDS011;8531;48.078;11.968;2022-10-16T05:13:58;3.25;;;2.63;;
16828;SDS011;8531;48.078;11.968;2022-10-16T05:16:24;4.18;;;3.78;;
16828;SDS011;8531;48.078;11.968;2022-10-16T05:18:53;7.10;;;4.13;;
16828;SDS011;8531;48.078;11.968;2022-10-16T05:21:19;4.63;;;3.60;;
16828;SDS011;8531;48.078;11.968;2022-10-16T05:23:45;4.35;;;2.80;;
16828;SDS011;8531;48.078;11.968;2022-10-16T05:26:11;3.40;;;2.75;;
16828;SDS011;8531;48.078;11.968;2022-10-16T05:28:37;3.17;;;2.88;;
16828;SDS011;8531;48.078;11.968;2022-10-16T05:31:06;3.05;;;2.72;;
16828;SDS011;8531;48.078;11.968;2022-10-16T05:33:32;3.15;;;2.70;;
16828;SDS011;8531;48.078;11.968;2022-10-16T05:36:02;2.42;;;2.20;;
16828;SDS011;8531;48.078;11.968;2022-10-16T05:38:30;3.95;;;2.35;;
16828;SDS011;8531;48.078;11.968;2022-10-16T05:40:56;3.50;;;2.40;;
16828;SDS011;8531;48.078;11.968;2022-10-16T05:43:22;2.75;;;2.30;;
16828;SDS011;8531;48.078;11.968;2022-10-16T05:45:54;6.22;;;2.47;;
16828;SDS011;8531;48.078;11.968;2022-10-16T05:48:24;4.97;;;2.75;;
16828;SDS011;8531;48.078;11.968;2022-10-16T05:50:58;4.22;;;2.63;;
16828;SDS011;8531;48.078;11.968;2022-10-16T05:53:24;3.58;;;2.35;;
16828;SDS011;8531;48.078;11.968;2022-10-16T05:55:52;3.15;;;2.78;;
16828;SDS011;8531;48.078;11.968;2022-10-16T05:58:18;4.05;;;2.72;;
16828;SDS011;8531;48.078;11.968;2022-10-16T06:00:44;3.15;;;2.60;;
16828;SDS011;8531;48.078;11.968;2022-10-16T06:03:17;2.95;;;2.60;;
16828;SDS011;8531;48.078;11.968;2022-10-16T06:05:42;6.13;;;2.90;;
16828;SDS011;8531;48.078;11.968;2022-10-16T06:08:08;2.67;;;2.30;;
16828;SDS011;8531;48.078;11.968;2022-10-16T06:10:34;2.85;;;2.40;;
16828;SDS011;8531;48.078;11.968;2022-10-16T06:13:00;2.78;;;2.28;;
16828;SDS011;8531;48.078;11.968;2022-10-16T06:15:25;3.33;;;2.72;;
16828;SDS011;8531;48.078;11.968;2022-10-16T06:17:51;3.08;;;2.50;;
16828;SDS011;8531;48.078;11.968;2022-10-16T06:20:17;2.42;;;2.22;;
16828;SDS011;8531;48.078;11.968;2022-10-16T06:22:42;6.03;;;3.15;;
16828;SDS011;8531;48.078;11.968;2022-10-16T06:25:08;3.95;;;2.70;;
16828;SDS011;8531;48.078;11.968;2022-10-16T06:27:33;2.95;;;2.60;;
16828;SDS011;8531;48.078;11.968;2022-10-16T06:29:59;2.70;;;2.50;;
16828;SDS011;8531;48.078;11.968;2022-10-16T06:32:25;2.72;;;2.50;;
16828;SDS011;8531;48.078;11.968;2022-10-16T06:34:52;6.07;;;3.10;;
16828;SDS011;8531;48.078;11.968;2022-10-16T06:37:18;3.47;;;2.42;;
16828;SDS011;8531;48.078;11.968;2022-10-16T06:39:43;5.22;;;2.97;;
16828;SDS011;8531;48.078;11.968;2022-10-16T06:42:09;3.65;;;3.30;;
16828;SDS011;8531;48.078;11.968;2022-10-16T06:44:35;3.20;;;2.78;;
16828;SDS011;8531;48.078;11.968;2022-10-16T06:47:00;4.55;;;2.72;;
16828;SDS011;8531;48.078;11.968;2022-10-16T06:49:26;4.10;;;2.63;;
16828;SDS011;8531;48.078;11.968;2022-10-16T06:51:53;3.17;;;2.00;;
16828;SDS011;8531;48.078;11.968;2022-10-16T06:54:19;2.60;;;2.40;;
16828;SDS011;8531;48.078;11.968;2022-10-16T06:56:44;4.03;;;2.25;;
16828;SDS011;8531;48.078;11.968;2022-10-16T06:59:10;4.65;;;3.33;;
16828;SDS011;8531;48.078;11.968;2022-10-16T07:01:36;3.47;;;2.90;;
16828;SDS011;8531;48.078;11.968;2022-10-16T07:04:02;3.28;;;2.80;;
16828;SDS011;8531;48.078;11.968;2022-10-16T07:06:30;5.63;;;3.65;;
16828;SDS011;8531;48.078;11.968;2022-10-16T07:08:57;3.35;;;2.30;;
16828;SDS011;8531;48.078;11.968;2022-10-16T07:11:23;3.10;;;2.63;;
16828;SDS011;8531;48.078;11.968;2022-10-16T07:13:49;3.10;;;2.53;;
16828;SDS011;8531;48.078;11.968;2022-10-16T07:16:19;4.82;;;2.80;;
16828;SDS011;8531;48.078;11.968;2022-10-16T07:18:47;3.90;;;2.50;;
16828;SDS011;8531;48.078;11.968;2022-10-16T07:21:18;3.95;;;2.85;;
16828;SDS011;8531;48.078;11.968;2022-10-16T07:23:45;3.78;;;2.97;;
16828;SDS011;8531;48.078;11.968;2022-10-16T07:26:18;5.68;;;2.25;;
16828;SDS011;8531;48.078;11.968;2022-10-16T07:28:44;3.67;;;2.40;;
16828;SDS011;8531;48.078;11.968;2022-10-16T07:31:10;5.50;;;2.30;;
16828;SDS011;8531;48.078;11.968;2022-10-16T07:33:38;2.47;;;2.28;;
16828;SDS011;8531;48.078;11.968;2022-10-16T07:36:07;3.13;;;2.50;;
16828;SDS011;8531;48.078;11.968;2022-10-16T07:38:33;2.80;;;2.25;;
16828;SDS011;8531;48.078;11.968;2022-10-16T07:40:59;4.90;;;2.38;;
16828;SDS011;8531;48.078;11.968;2022-10-16T07:43:26;5.35;;;3.00;;
16828;SDS011;8531;48.078;11.968;2022-10-16T07:45:52;6.38;;;2.50;;
16828;SDS011;8531;48.078;11.968;2022-10-16T07:48:18;2.78;;;2.17;;
16828;SDS011;8531;48.078;11.968;2022-10-16T07:50:44;3.75;;;2.05;;
16828;SDS011;8531;48.078;11.968;2022-10-16T07:53:10;4.18;;;2.40;;
16828;SDS011;8531;48.078;11.968;2022-10-16T07:55:36;3.45;;;2.20;;
16828;SDS011;8531;48.078;11.968;2022-10-16T07:58:02;3.30;;;1.88;;
16828;SDS011;8531;48.078;11.968;2022-10-16T08:00:28;2.35;;;2.10;;
16828;SDS011;8531;48.078;11.968;2022-10-16T08:02:54;1.70;;;1.60;;
16828;SDS011;8531;48.078;11.968;2022-10-16T08:05:21;4.13;;;2.22;;
16828;SDS011;8531;48.078;11.968;2022-10-16T08:07:50;2.67;;;1.90;;
16828;SDS011;8531;48.078;11.968;2022-10-16T08:10:17;5.07;;;2.53;;
16828;SDS011;8531;48.078;11.968;2022-10-16T08:12:44;2.80;;;2.10;;
16828;SDS011;8531;48.078;11.968;2022-10-16T08:15:09;4.30;;;2.13;;
16828;SDS011;8531;48.078;11.968;2022-10-16T08:17:35;4.90;;;1.83;;
16828;SDS011;8531;48.078;11.968;2022-10-16T08:20:01;5.70;;;2.35;;
16828;SDS011;8531;48.078;11.968;2022-10-16T08:22:27;4.22;;;2.15;;
16828;SDS011;8531;48.078;11.968;2022-10-16T08:24:53;2.40;;;2.00;;
16828;SDS011;8531;48.078;11.968;2022-10-16T08:27:18;3.78;;;2.65;;
16828;SDS011;8531;48.078;11.968;2022-10-16T08:29:44;2.85;;;2.53;;
16828;SDS011;8531;48.078;11.968;2022-10-16T08:32:10;2.88;;;2.42;;
16828;SDS011;8531;48.078;11.968;2022-10-16T08:34:35;5.93;;;2.88;;
16828;SDS011;8531;48.078;11.968;2022-10-16T08:37:01;2.70;;;1.90;;
16828;SDS011;8531;48.078;11.968;2022-10-16T08:39:27;3.67;;;1.90;;
16828;SDS011;8531;48.078;11.968;2022-10-16T08:47:49;2.25;;;1.92;;
16828;SDS011;8531;48.078;11.968;2022-10-16T08:50:36;2.45;;;1.73;;
16828;SDS011;8531;48.078;11.968;2022-10-16T08:53:04;8.15;;;1.73;;
16828;SDS011;8531;48.078;11.968;2022-10-16T08:55:38;3.50;;;1.85;;
16828;SDS011;8531;48.078;11.968;2022-10-16T08:58:14;2.95;;;1.50;;
16828;SDS011;8531;48.078;11.968;2022-10-16T09:00:42;3.00;;;1.40;;
16828;SDS011;8531;48.078;11.968;2022-10-16T09:06:07;2.33;;;1.33;;
16828;SDS011;8531;48.078;11.968;2022-10-16T09:09:09;2.85;;;2.40;;
16828;SDS011;8531;48.078;11.968;2022-10-16T09:20:10;4.43;;;1.42;;
16828;SDS011;8531;48.078;11.968;2022-10-16T09:25:39;3.85;;;1.25;;
16828;SDS011;8531;48.078;11.968;2022-10-16T09:28:07;1.45;;;1.35;;
16828;SDS011;8531;48.078;11.968;2022-10-16T09:30:35;4.20;;;1.23;;
16828;SDS011;8531;48.078;11.968;2022-10-16T09:33:02;1.85;;;1.52;;
16828;SDS011;8531;48.078;11.968;2022-10-16T09:35:36;4.97;;;1.50;;
16828;SDS011;8531;48.078;11.968;2022-10-16T09:38:08;3.47;;;1.33;;
16828;SDS011;8531;48.078;11.968;2022-10-16T09:40:46;1.67;;;1.35;;
16828;SDS011;8531;48.078;11.968;2022-10-16T09:48:29;2.03;;;1.30;;
16828;SDS011;8531;48.078;11.968;2022-10-16T09:51:03;1.30;;;1.20;;
16828;SDS011;8531;48.078;11.968;2022-10-16T09:53:41;2.85;;;1.40;;
16828;SDS011;8531;48.078;11.968;2022-10-16T09:59:11;4.63;;;1.35;;
16828;SDS011;8531;48.078;11.968;2022-10-16T10:01:40;1.55;;;1.45;;
16828;SDS011;8531;48.078;11.968;2022-10-16T10:04:06;1.83;;;1.52;;
16828;SDS011;8531;48.078;11.968;2022-10-16T10:06:33;1.60;;;1.40;;
16828;SDS011;8531;48.078;11.968;2022-10-16T10:09:25;2.63;;;1.67;;
16828;SDS011;8531;48.078;11.968;2022-10-16T10:19:52;2.30;;;2.08;;
16828;SDS011;8531;48.078;11.968;2022-10-16T10:22:44;2.55;;;1.50;;
16828;SDS011;8531;48.078;11.968;2022-10-16T10:30:27;2.30;;;1.48;;
16828;SDS011;8531;48.078;11.968;2022-10-16T10:38:31;3.97;;;1.30;;
16828;SDS011;8531;48.078;11.968;2022-10-16T10:46:34;3.47;;;1.33;;
16828;SDS011;8531;48.078;11.968;2022-10-16T10:57:03;2.10;;;1.20;;
16828;SDS011;8531;48.078;11.968;2022-10-16T11:04:56;1.35;;;1.20;;
16828;SDS011;8531;48.078;11.968;2022-10-16T11:09:53;1.35;;;1.10;;
16828;SDS011;8531;48.078;11.968;2022-10-16T11:15:02;3.22;;;1.50;;
16828;SDS011;8531;48.078;11.968;2022-10-16T11:17:30;1.50;;;1.40;;
16828;SDS011;8531;48.078;11.968;2022-10-16T11:20:13;3.05;;;1.27;;
16828;SDS011;8531;48.078;11.968;2022-10-16T11:22:48;2.58;;;1.25;;
16828;SDS011;8531;48.078;11.968;2022-10-16T11:25:27;1.20;;;1.10;;
16828;SDS011;8531;48.078;11.968;2022-10-16T11:31:13;4.25;;;2.15;;
16828;SDS011;8531;48.078;11.968;2022-10-16T11:39:48;6.25;;;3.03;;
16828;SDS011;8531;48.078;11.968;2022-10-16T11:45:03;5.60;;;3.90;;
16828;SDS011;8531;48.078;11.968;2022-10-16T11:48:02;5.28;;;1.52;;
16828;SDS011;8531;48.078;11.968;2022-10-16T11:50:43;2.00;;;1.55;;
16828;SDS011;8531;48.078;11.968;2022-10-16T11:56:12;2.80;;;1.10;;
16828;SDS011;8531;48.078;11.968;2022-10-16T11:58:49;1.73;;;1.00;;
16828;SDS011;8531;48.078;11.968;2022-10-16T12:01:33;1.45;;;1.35;;
16828;SDS011;8531;48.078;11.968;2022-10-16T12:06:47;1.40;;;1.10;;
16828;SDS011;8531;48.078;11.968;2022-10-16T12:09:26;1.33;;;1.10;;
16828;SDS011;8531;48.078;11.968;2022-10-16T12:11:54;1.40;;;1.30;;
16828;SDS011;8531;48.078;11.968;2022-10-16T12:17:44;1.45;;;1.35;;
16828;SDS011;8531;48.078;11.968;2022-10-16T12:22:40;2.80;;;1.40;;
16828;SDS011;8531;48.078;11.968;2022-10-16T12:25:19;1.90;;;1.17;;
16828;SDS011;8531;48.078;11.968;2022-10-16T12:27:53;2.92;;;2.47;;
16828;SDS011;8531;48.078;11.968;2022-10-16T12:30:25;2.58;;;1.50;;
16828;SDS011;8531;48.078;11.968;2022-10-16T12:32:56;4.43;;;1.30;;
16828;SDS011;8531;48.078;11.968;2022-10-16T12:35:26;1.45;;;1.30;;
16828;SDS011;8531;48.078;11.968;2022-10-16T12:38:04;1.08;;;0.98;;
16828;SDS011;8531;48.078;11.968;2022-10-16T12:40:33;1.17;;;1.08;;
16828;SDS011;8531;48.078;11.968;2022-10-16T12:43:11;2.00;;;0.90;;
16828;SDS011;8531;48.078;11.968;2022-10-16T12:45:38;3.58;;;1.58;;
16828;SDS011;8531;48.078;11.968;2022-10-16T12:48:17;2.72;;;0.95;;
16828;SDS011;8531;48.078;11.968;2022-10-16T12:50:47;2.55;;;1.10;;
16828;SDS011;8531;48.078;11.968;2022-10-16T12:53:20;1.13;;;0.70;;
16828;SDS011;8531;48.078;11.968;2022-10-16T12:55:52;2.33;;;1.20;;
16828;SDS011;8531;48.078;11.968;2022-10-16T13:01:24;3.72;;;1.27;;
16828;SDS011;8531;48.078;11.968;2022-10-16T13:04:14;3.00;;;1.95;;
16828;SDS011;8531;48.078;11.968;2022-10-16T13:09:22;1.77;;;1.27;;
16828;SDS011;8531;48.078;11.968;2022-10-16T13:14:55;0.60;;;0.60;;
16828;SDS011;8531;48.078;11.968;2022-10-16T13:17:37;2.17;;;1.05;;
16828;SDS011;8531;48.078;11.968;2022-10-16T13:20:23;2.47;;;0.80;;
16828;SDS011;8531;48.078;11.968;2022-10-16T13:26:21;2.88;;;0.80;;
16828;SDS011;8531;48.078;11.968;2022-10-16T13:28:42;1.08;;;0.93;;
16828;SDS011;8531;48.078;11.968;2022-10-16T13:31:18;1.40;;;1.00;;
16828;SDS011;8531;48.078;11.968;2022-10-16T13:33:49;2.75;;;1.25;;
16828;SDS011;8531;48.078;11.968;2022-10-16T13:36:21;1.23;;;0.80;;
16828;SDS011;8531;48.078;11.968;2022-10-16T13:39:14;2.33;;;0.95;;
16828;SDS011;8531;48.078;11.968;2022-10-16T13:41:42;3.65;;;1.10;;
16828;SDS011;8531;48.078;11.968;2022-10-16T13:44:20;10.43;;;1.60;;
16828;SDS011;8531;48.078;11.968;2022-10-16T13:46:46;3.85;;;1.45;;
16828;SDS011;8531;48.078;11.968;2022-10-16T13:49:15;3.00;;;1.20;;
16828;SDS011;8531;48.078;11.968;2022-10-16T13:51:53;4.25;;;1.13;;
16828;SDS011;8531;48.078;11.968;2022-10-16T13:54:23;2.08;;;0.98;;
16828;SDS011;8531;48.078;11.968;2022-10-16T13:56:50;4.63;;;1.40;;
16828;SDS011;8531;48.078;11.968;2022-10-16T13:59:35;2.92;;;1.10;;
16828;SDS011;8531;48.078;11.968;2022-10-16T14:02:50;3.33;;;1.00;;
16828;SDS011;8531;48.078;11.968;2022-10-16T14:04:54;8.60;;;1.50;;
16828;SDS011;8531;48.078;11.968;2022-10-16T14:07:24;3.33;;;1.35;;
16828;SDS011;8531;48.078;11.968;2022-10-16T14:10:00;3.72;;;1.20;;
16828;SDS011;8531;48.078;11.968;2022-10-16T14:12:29;1.65;;;1.20;;
16828;SDS011;8531;48.078;11.968;2022-10-16T14:14:55;2.05;;;0.90;;
16828;SDS011;8531;48.078;11.968;2022-10-16T14:17:28;1.70;;;1.38;;
16828;SDS011;8531;48.078;11.968;2022-10-16T14:19:56;5.60;;;1.00;;
16828;SDS011;8531;48.078;11.968;2022-10-16T14:22:34;1.90;;;1.17;;
16828;SDS011;8531;48.078;11.968;2022-10-16T14:25:08;1.65;;;1.10;;
16828;SDS011;8531;48.078;11.968;2022-10-16T14:27:44;5.70;;;1.67;;
16828;SDS011;8531;48.078;11.968;2022-10-16T14:30:20;1.42;;;1.08;;
16828;SDS011;8531;48.078;11.968;2022-10-16T14:33:05;3.58;;;1.00;;
16828;SDS011;8531;48.078;11.968;2022-10-16T14:35:44;1.50;;;1.13;;
16828;SDS011;8531;48.078;11.968;2022-10-16T14:38:18;1.45;;;1.20;;
16828;SDS011;8531;48.078;11.968;2022-10-16T14:40:48;2.92;;;1.25;;
16828;SDS011;8531;48.078;11.968;2022-10-16T14:43:19;1.95;;;1.05;;
16828;SDS011;8531;48.078;11.968;2022-10-16T14:45:56;1.33;;;0.98;;
16828;SDS011;8531;48.078;11.968;2022-10-16T14:48:22;2.38;;;1.02;;
16828;SDS011;8531;48.078;11.968;2022-10-16T14:50:49;5.28;;;1.30;;
16828;SDS011;8531;48.078;11.968;2022-10-16T14:53:15;2.13;;;1.17;;
16828;SDS011;8531;48.078;11.968;2022-10-16T14:55:41;3.75;;;0.90;;
16828;SDS011;8531;48.078;11.968;2022-10-16T14:58:26;1.92;;;1.30;;
16828;SDS011;8531;48.078;11.968;2022-10-16T15:00:51;1.10;;;1.00;;
16828;SDS011;8531;48.078;11.968;2022-10-16T15:03:17;4.00;;;1.63;;
16828;SDS011;8531;48.078;11.968;2022-10-16T15:05:43;1.40;;;0.90;;
16828;SDS011;8531;48.078;11.968;2022-10-16T15:08:08;1.63;;;1.23;;
16828;SDS011;8531;48.078;11.968;2022-10-16T15:10:37;1.45;;;0.95;;
16828;SDS011;8531;48.078;11.968;2022-10-16T15:13:06;3.35;;;1.13;;
16828;SDS011;8531;48.078;11.968;2022-10-16T15:15:35;2.45;;;1.27;;
16828;SDS011;8531;48.078;11.968;2022-10-16T15:18:03;2.05;;;1.05;;
16828;SDS011;8531;48.078;11.968;2022-10-16T15:20:31;4.97;;;1.92;;
16828;SDS011;8531;48.078;11.968;2022-10-16T15:23:02;1.38;;;0.90;;
16828;SDS011;8531;48.078;11.968;2022-10-16T15:25:41;3.45;;;1.40;;
16828;SDS011;8531;48.078;11.968;2022-10-16T15:28:14;1.63;;;1.20;;
16828;SDS011;8531;48.078;11.968;2022-10-16T15:30:41;3.97;;;1.80;;
16828;SDS011;8531;48.078;11.968;2022-10-16T15:33:11;3.17;;;1.80;;
16828;SDS011;8531;48.078;11.968;2022-10-16T15:35:39;1.40;;;1.30;;
16828;SDS011;8531;48.078;11.968;2022-10-16T15:38:04;2.95;;;1.38;;
16828;SDS011;8531;48.078;11.968;2022-10-16T15:40:30;3.25;;;2.95;;
16828;SDS011;8531;48.078;11.968;2022-10-16T15:42:56;2.80;;;1.77;;
16828;SDS011;8531;48.078;11.968;2022-10-16T15:45:21;2.95;;;1.70;;
16828;SDS011;8531;48.078;11.968;2022-10-16T15:47:47;4.03;;;1.33;;
16828;SDS011;8531;48.078;11.968;2022-10-16T15:50:14;2.70;;;1.70;;
16828;SDS011;8531;48.078;11.968;2022-10-16T15:52:40;3.17;;;1.55;;
16828;SDS011;8531;48.078;11.968;2022-10-16T15:55:10;3.92;;;1.80;;
16828;SDS011;8531;48.078;11.968;2022-10-16T15:57:37;2.17;;;1.92;;
16828;SDS011;8531;48.078;11.968;2022-10-16T16:00:07;2.47;;;1.25;;
16828;SDS011;8531;48.078;11.968;2022-10-16T16:02:36;1.40;;;1.30;;
16828;SDS011;8531;48.078;11.968;2022-10-16T16:05:01;3.45;;;1.80;;
16828;SDS011;8531;48.078;11.968;2022-10-16T16:07:28;3.45;;;1.98;;
16828;SDS011;8531;48.078;11.968;2022-10-16T16:09:57;4.80;;;2.28;;
16828;SDS011;8531;48.078;11.968;2022-10-16T16:12:23;4.13;;;1.85;;
16828;SDS011;8531;48.078;11.968;2022-10-16T16:14:48;3.45;;;1.98;;
16828;SDS011;8531;48.078;11.968;2022-10-16T16:17:14;3.13;;;2.05;;
16828;SDS011;8531;48.078;11.968;2022-10-16T16:19:40;2.13;;;1.73;;
16828;SDS011;8531;48.078;11.968;2022-10-16T16:22:05;7.20;;;2.10;;
16828;SDS011;8531;48.078;11.968;2022-10-16T16:24:31;2.78;;;1.63;;
16828;SDS011;8531;48.078;11.968;2022-10-16T16:26:57;2.50;;;1.80;;
16828;SDS011;8531;48.078;11.968;2022-10-16T16:29:22;2.38;;;1.80;;
16828;SDS011;8531;48.078;11.968;2022-10-16T16:31:48;2.42;;;2.10;;
16828;SDS011;8531;48.078;11.968;2022-10-16T16:34:14;1.77;;;1.67;;
16828;SDS011;8531;48.078;11.968;2022-10-16T16:36:40;3.67;;;1.50;;
16828;SDS011;8531;48.078;11.968;2022-10-16T16:39:06;3.00;;;1.70;;
16828;SDS011;8531;48.078;11.968;2022-10-16T16:41:32;2.10;;;1.55;;
16828;SDS011;8531;48.078;11.968;2022-10-16T16:44:02;2.42;;;1.80;;
16828;SDS011;8531;48.078;11.968;2022-10-16T16:46:30;2.03;;;1.10;;
16828;SDS011;8531;48.078;11.968;2022-10-16T16:48:58;4.53;;;1.55;;
16828;SDS011;8531;48.078;11.968;2022-10-16T16:51:23;5.53;;;1.85;;
16828;SDS011;8531;48.078;11.968;2022-10-16T16:53:50;4.40;;;1.83;;
16828;SDS011;8531;48.078;11.968;2022-10-16T16:56:17;2.88;;;1.92;;
16828;SDS011;8531;48.078;11.968;2022-10-16T16:58:47;3.40;;;2.22;;
16828;SDS011;8531;48.078;11.968;2022-10-16T17:01:14;3.47;;;2.00;;
16828;SDS011;8531;48.078;11.968;2022-10-16T17:03:41;8.30;;;2.53;;
16828;SDS011;8531;48.078;11.968;2022-10-16T17:06:12;2.75;;;1.92;;
16828;SDS011;8531;48.078;11.968;2022-10-16T17:08:41;3.03;;;1.70;;